createdAt,value
2022-09-12T00:01:05.584Z,101506.63
2022-09-12T00:03:33.525Z,101499.66
2022-09-12T00:06:01.465Z,101504.94
2022-09-12T00:08:29.348Z,101507.63
2022-09-12T00:10:58.525Z,101509.03
2022-09-12T00:13:26.324Z,101499.06
2022-09-12T00:15:54.162Z,101496.22
2022-09-12T00:18:21.991Z,101492.94
2022-09-12T00:20:50.154Z,101499.59
2022-09-12T00:23:18.032Z,101491.97
2022-09-12T00:25:47.676Z,101488.41
2022-09-12T00:28:19.107Z,101496.50
2022-09-12T00:30:49.070Z,101497.22
2022-09-12T00:33:18.832Z,101497.94
2022-09-12T00:35:48.498Z,101502.16
2022-09-12T00:38:17.844Z,101501.03
2022-09-12T00:40:45.815Z,101503.00
2022-09-12T00:43:16.628Z,101497.28
2022-09-12T00:45:45.025Z,101502.41
2022-09-12T00:48:24.435Z,101496.44
2022-09-12T00:50:52.435Z,101499.56
2022-09-12T00:53:20.386Z,101493.03
2022-09-12T00:55:52.308Z,101490.03
2022-09-12T00:58:24.378Z,101499.56
2022-09-12T01:00:52.769Z,101489.88
2022-09-12T01:03:23.337Z,101494.97
2022-09-12T01:06:00.701Z,101494.78
2022-09-12T01:08:30.316Z,101495.66
2022-09-12T01:10:58.758Z,101502.03
2022-09-12T01:13:29.108Z,101496.81
2022-09-12T01:15:57.447Z,101497.78
2022-09-12T01:18:32.615Z,101492.25
2022-09-12T01:21:12.499Z,101495.22
2022-09-12T01:24:25.291Z,101499.66
2022-09-12T01:27:25.744Z,101482.22
2022-09-12T01:30:31.571Z,101497.38
2022-09-12T01:33:31.726Z,101488.88
2022-09-12T01:36:17.145Z,101498.41
2022-09-12T01:38:49.999Z,101490.13
2022-09-12T01:41:26.060Z,101495.38
2022-09-12T01:44:01.767Z,101498.28
2022-09-12T01:46:36.839Z,101495.44
2022-09-12T01:49:12.890Z,101496.81
2022-09-12T01:51:45.446Z,101488.25
2022-09-12T01:54:18.480Z,101486.38
2022-09-12T01:56:50.903Z,101479.44
2022-09-12T01:59:24.986Z,101476.59
2022-09-12T02:02:00.518Z,101485.38
2022-09-12T02:04:34.264Z,101489.91
2022-09-12T02:07:09.720Z,101486.09
2022-09-12T02:09:42.799Z,101485.66
2022-09-12T02:12:15.056Z,101488.28
2022-09-12T02:14:47.482Z,101489.13
2022-09-12T02:17:21.055Z,101485.75
2022-09-12T02:19:53.975Z,101488.47
2022-09-12T02:22:26.371Z,101486.31
2022-09-12T02:24:59.913Z,101485.38
2022-09-12T02:27:34.704Z,101493.75
2022-09-12T02:30:02.675Z,101485.88
2022-09-12T02:32:39.131Z,101486.50
2022-09-12T02:35:12.124Z,101493.34
2022-09-12T02:37:57.147Z,101482.75
2022-09-12T02:40:25.819Z,101485.75
2022-09-12T02:42:53.877Z,101479.66
2022-09-12T02:45:23.254Z,101490.00
2022-09-12T02:48:28.548Z,101493.19
2022-09-12T02:50:57.355Z,101479.38
2022-09-12T02:53:28.506Z,101485.75
2022-09-12T02:55:56.571Z,101485.00
2022-09-12T02:58:27.053Z,101493.44
2022-09-12T03:01:06.081Z,101495.09
2022-09-12T03:03:53.623Z,101495.44
2022-09-12T03:06:31.970Z,101494.34
2022-09-12T03:09:10.488Z,101493.63
2022-09-12T03:11:52.077Z,101494.59
2022-09-12T03:14:35.685Z,101491.38
2022-09-12T03:17:09.141Z,101486.25
2022-09-12T03:19:47.515Z,101489.22
2022-09-12T03:22:21.694Z,101489.75
2022-09-12T03:24:55.419Z,101491.41
2022-09-12T03:27:31.092Z,101490.25
2022-09-12T03:30:00.134Z,101488.59
2022-09-12T03:32:45.297Z,101489.88
2022-09-12T03:35:17.928Z,101487.00
2022-09-12T03:37:48.626Z,101494.22
2022-09-12T03:40:16.820Z,101496.66
2022-09-12T03:42:44.814Z,101493.69
2022-09-12T03:45:13.084Z,101492.53
2022-09-12T03:47:41.306Z,101488.25
2022-09-12T03:50:09.653Z,101484.75
2022-09-12T03:52:38.852Z,101496.19
2022-09-12T03:55:07.848Z,101497.06
2022-09-12T03:57:35.697Z,101496.44
2022-09-12T04:00:04.847Z,101497.13
2022-09-12T04:02:40.438Z,101506.66
2022-09-12T04:05:08.645Z,101502.63
2022-09-12T04:07:37.849Z,101515.38
2022-09-12T04:10:06.436Z,101507.41
2022-09-12T04:12:35.570Z,101499.94
2022-09-12T04:15:03.474Z,101499.34
2022-09-12T04:17:31.350Z,101496.63
2022-09-12T04:19:59.157Z,101502.31
2022-09-12T04:22:27.012Z,101496.31
2022-09-12T04:24:56.274Z,101500.44
2022-09-12T04:27:24.105Z,101496.31
2022-09-12T04:29:51.953Z,101494.78
2022-09-12T04:32:20.011Z,101492.09
2022-09-12T04:34:47.865Z,101493.69
2022-09-12T04:37:16.841Z,101490.38
2022-09-12T04:39:44.776Z,101497.25
2022-09-12T04:42:13.996Z,101498.69
2022-09-12T04:44:41.852Z,101500.91
2022-09-12T04:47:09.703Z,101504.09
2022-09-12T04:49:37.694Z,101496.13
2022-09-12T04:52:05.695Z,101493.03
2022-09-12T04:54:34.796Z,101494.78
2022-09-12T04:57:02.631Z,101492.47
2022-09-12T04:59:31.876Z,101494.41
2022-09-12T05:01:59.883Z,101494.75
2022-09-12T05:04:27.830Z,101493.50
2022-09-12T05:06:55.667Z,101495.94
2022-09-12T05:09:23.600Z,101501.34
2022-09-12T05:12:06.881Z,101493.75
2022-09-12T05:14:36.256Z,101496.13
2022-09-12T05:17:06.018Z,101492.09
2022-09-12T05:19:34.106Z,101496.56
2022-09-12T05:22:02.496Z,101500.97
2022-09-12T05:24:30.436Z,101507.44
2022-09-12T05:26:58.253Z,101502.09
2022-09-12T05:29:26.285Z,101498.41
2022-09-12T05:31:55.528Z,101499.41
2022-09-12T05:34:23.687Z,101507.72
2022-09-12T05:36:51.519Z,101507.34
2022-09-12T05:39:19.538Z,101518.53
2022-09-12T05:41:47.535Z,101524.06
2022-09-12T05:44:15.905Z,101521.44
2022-09-12T05:46:45.471Z,101525.22
2022-09-12T05:49:14.872Z,101521.19
2022-09-12T05:51:44.468Z,101525.53
2022-09-12T05:54:14.349Z,101530.91
2022-09-12T05:56:44.308Z,101523.47
2022-09-12T05:59:14.234Z,101529.56
2022-09-12T06:01:42.330Z,101528.88
2022-09-12T06:04:10.723Z,101531.94
2022-09-12T06:06:43.494Z,101535.31
2022-09-12T06:09:12.042Z,101527.34
2022-09-12T06:11:41.867Z,101533.91
2022-09-12T06:14:11.674Z,101533.06
2022-09-12T06:16:40.735Z,101538.91
2022-09-12T06:19:13.902Z,101532.09
2022-09-12T06:21:43.760Z,101546.00
2022-09-12T06:24:12.093Z,101539.25
2022-09-12T06:26:40.017Z,101540.09
2022-09-12T06:29:08.478Z,101547.25
2022-09-12T06:31:38.799Z,101547.41
2022-09-12T06:34:08.432Z,101548.84
2022-09-12T06:36:38.880Z,101553.22
2022-09-12T06:39:11.038Z,101559.97
2022-09-12T06:41:43.522Z,101558.00
2022-09-12T06:44:14.016Z,101555.84
2022-09-12T06:46:41.906Z,101555.53
2022-09-12T06:49:10.051Z,101548.00
2022-09-12T06:51:38.024Z,101549.50
2022-09-12T06:54:06.464Z,101551.34
2022-09-12T06:56:35.965Z,101550.09
2022-09-12T06:59:03.819Z,101545.69
2022-09-12T07:01:33.180Z,101536.13
2022-09-12T07:04:03.097Z,101536.91
2022-09-12T07:06:32.592Z,101531.44
2022-09-12T07:09:01.310Z,101529.13
2022-09-12T07:11:31.850Z,101531.97
2022-09-12T07:14:03.123Z,101529.59
2022-09-12T07:16:31.143Z,101532.81
2022-09-12T07:19:01.349Z,101531.00
2022-09-12T07:21:29.947Z,101529.59
2022-09-12T07:23:58.785Z,101533.84
2022-09-12T07:26:29.487Z,101529.28
2022-09-12T07:29:18.643Z,101533.53
2022-09-12T07:31:48.417Z,101524.81
2022-09-12T07:34:17.935Z,101529.97
2022-09-12T07:36:45.736Z,101526.81
2022-09-12T07:39:13.584Z,101532.22
2022-09-12T07:41:41.865Z,101532.97
2022-09-12T07:44:09.756Z,101535.38
2022-09-12T07:46:37.810Z,101528.78
2022-09-12T07:49:08.449Z,101535.13
2022-09-12T07:51:36.543Z,101526.13
2022-09-12T07:54:09.275Z,101534.22
2022-09-12T07:56:39.323Z,101531.75
2022-09-12T07:59:07.820Z,101539.47
2022-09-12T08:01:36.299Z,101534.19
2022-09-12T08:04:05.274Z,101538.34
2022-09-12T08:06:36.081Z,101537.13
2022-09-12T08:09:05.717Z,101537.56
2022-09-12T08:11:33.616Z,101537.72
2022-09-12T08:14:03.054Z,101546.56
2022-09-12T08:16:33.117Z,101541.09
2022-09-12T08:19:02.260Z,101540.59
2022-09-12T08:21:31.802Z,101541.88
2022-09-12T08:24:03.317Z,101547.38
2022-09-12T08:26:31.936Z,101538.56
2022-09-12T08:29:00.546Z,101539.28
2022-09-12T08:31:29.431Z,101535.66
2022-09-12T08:33:58.678Z,101544.63
2022-09-12T08:36:29.574Z,101538.69
2022-09-12T08:39:00.397Z,101529.94
2022-09-12T08:41:34.845Z,101523.16
2022-09-12T08:44:19.866Z,101529.72
2022-09-12T08:47:01.919Z,101526.78
2022-09-12T08:49:33.733Z,101527.38
2022-09-12T08:52:08.088Z,101526.44
2022-09-12T08:54:36.199Z,101530.59
2022-09-12T08:57:07.762Z,101524.47
2022-09-12T08:59:39.542Z,101517.09
2022-09-12T09:02:30.596Z,101523.16
2022-09-12T09:05:06.416Z,101525.09
2022-09-12T09:08:05.458Z,101518.97
2022-09-12T09:10:42.152Z,101522.28
2022-09-12T09:13:39.501Z,101516.06
2022-09-12T09:16:11.979Z,101518.59
2022-09-12T09:18:41.265Z,101515.72
2022-09-12T09:21:21.652Z,101505.31
2022-09-12T09:23:54.944Z,101515.16
2022-09-12T09:26:26.730Z,101504.59
2022-09-12T09:29:03.386Z,101509.41
2022-09-12T09:31:35.344Z,101503.56
2022-09-12T09:34:07.009Z,101503.16
2022-09-12T09:36:44.024Z,101508.34
2022-09-12T09:39:22.003Z,101509.56
2022-09-12T09:42:00.783Z,101499.16
2022-09-12T09:44:30.849Z,101507.19
2022-09-12T09:47:00.772Z,101498.16
2022-09-12T09:49:32.283Z,101498.59
2022-09-12T09:52:02.005Z,101491.38
2022-09-12T09:54:35.415Z,101496.63
2022-09-12T09:57:05.072Z,101492.88
2022-09-12T09:59:35.166Z,101490.72
2022-09-12T10:02:24.028Z,101479.00
2022-09-12T10:04:56.228Z,101484.56
2022-09-12T10:07:25.594Z,101483.41
2022-09-12T10:10:07.758Z,101486.59
2022-09-12T10:12:36.357Z,101473.81
2022-09-12T10:15:19.392Z,101463.50
2022-09-12T10:17:49.805Z,101471.78
2022-09-12T10:20:32.402Z,101465.44
2022-09-12T10:23:02.358Z,101459.47
2022-09-12T10:25:31.093Z,101454.47
2022-09-12T10:28:03.003Z,101452.31
2022-09-12T10:30:33.009Z,101453.78
2022-09-12T10:33:10.073Z,101447.28
2022-09-12T10:35:47.266Z,101459.28
2022-09-12T10:38:22.865Z,101451.78
2022-09-12T10:40:59.364Z,101454.00
2022-09-12T10:43:33.659Z,101457.91
2022-09-12T10:46:31.151Z,101460.22
2022-09-12T10:49:26.489Z,101474.69
2022-09-12T10:51:55.975Z,101472.25
2022-09-12T10:54:27.391Z,101471.56
2022-09-12T10:57:14.674Z,101468.00
2022-09-12T10:59:59.776Z,101463.59
2022-09-12T11:02:35.672Z,101456.75
2022-09-12T11:05:11.841Z,101457.44
2022-09-12T11:07:45.153Z,101469.88
2022-09-12T11:10:19.237Z,101446.88
2022-09-12T11:12:54.408Z,101468.50
2022-09-12T11:15:40.764Z,101465.44
2022-09-12T11:18:20.888Z,101462.56
2022-09-12T11:21:03.063Z,101453.22
2022-09-12T11:23:53.590Z,101459.53
2022-09-12T11:26:32.494Z,101467.00
2022-09-12T11:29:10.951Z,101470.19
2022-09-12T11:31:57.407Z,101471.75
2022-09-12T11:34:38.746Z,101455.25
2022-09-12T11:37:29.039Z,101451.47
2022-09-12T11:40:00.565Z,101453.00
2022-09-12T11:42:34.288Z,101433.03
2022-09-12T11:45:09.144Z,101444.25
2022-09-12T11:47:38.503Z,101430.06
2022-09-12T11:50:26.680Z,101424.63
2022-09-12T11:53:00.078Z,101427.63
2022-09-12T11:55:30.421Z,101428.13
2022-09-12T11:57:59.518Z,101426.22
2022-09-12T12:00:33.208Z,101411.97
2022-09-12T12:03:10.173Z,101416.97
2022-09-12T12:05:47.498Z,101408.25
2022-09-12T12:08:15.966Z,101419.34
2022-09-12T12:10:49.892Z,101400.25
2022-09-12T12:13:21.000Z,101408.41
2022-09-12T12:15:51.823Z,101402.88
2022-09-12T12:18:23.821Z,101401.66
2022-09-12T12:20:54.405Z,101384.59
2022-09-12T12:23:28.534Z,101395.72
2022-09-12T12:25:57.872Z,101397.59
2022-09-12T12:29:01.870Z,101389.44
2022-09-12T12:31:29.744Z,101380.56
2022-09-12T12:34:28.881Z,101382.22
2022-09-12T12:36:59.120Z,101392.78
2022-09-12T12:40:01.130Z,101391.75
2022-09-12T12:43:07.542Z,101397.97
2022-09-12T12:46:12.934Z,101392.59
2022-09-12T12:49:07.030Z,101409.28
2022-09-12T12:52:02.593Z,101400.31
2022-09-12T12:54:50.089Z,101399.56
2022-09-12T12:57:29.891Z,101396.06
2022-09-12T13:00:02.406Z,101392.66
2022-09-12T13:02:35.839Z,101402.75
2022-09-12T13:05:08.699Z,101399.41
2022-09-12T13:07:41.537Z,101396.59
2022-09-12T13:10:11.601Z,101393.19
2022-09-12T13:12:47.347Z,101393.44
2022-09-12T13:15:49.791Z,101382.75
2022-09-12T13:18:25.191Z,101385.13
2022-09-12T13:20:59.483Z,101391.88
2022-09-12T13:23:33.660Z,101380.38
2022-09-12T13:26:03.705Z,101380.16
2022-09-12T13:28:32.620Z,101384.72
2022-09-12T13:31:04.031Z,101373.94
2022-09-12T13:33:42.377Z,101381.09
2022-09-12T13:36:38.471Z,101369.69
2022-09-12T13:39:17.328Z,101366.69
2022-09-12T13:42:09.249Z,101368.38
2022-09-12T13:44:44.066Z,101362.19
2022-09-12T13:47:16.631Z,101362.25
2022-09-12T13:49:46.356Z,101356.88
2022-09-12T13:52:20.653Z,101349.13
2022-09-12T13:54:53.107Z,101357.09
2022-09-12T13:57:33.687Z,101351.25
2022-09-12T14:00:05.909Z,101356.97
2022-09-12T14:02:36.771Z,101356.91
2022-09-12T14:05:13.251Z,101351.88
2022-09-12T14:07:55.005Z,101341.81
2022-09-12T14:10:29.182Z,101343.31
2022-09-12T14:12:58.755Z,101344.03
2022-09-12T14:15:29.957Z,101346.34
2022-09-12T14:17:59.707Z,101345.66
2022-09-12T14:20:31.112Z,101344.28
2022-09-12T14:23:02.684Z,101353.72
2022-09-12T14:25:39.049Z,101352.03
2022-09-12T14:28:07.650Z,101346.94
2022-09-12T14:30:37.422Z,101349.16
2022-09-12T14:33:21.956Z,101340.28
2022-09-12T14:35:51.697Z,101341.06
2022-09-12T14:38:25.625Z,101328.09
2022-09-12T14:41:02.436Z,101337.63
2022-09-12T14:43:32.336Z,101336.19
2022-09-12T14:46:03.235Z,101334.81
2022-09-12T14:48:34.449Z,101333.81
2022-09-12T14:51:02.537Z,101330.03
2022-09-12T14:53:35.149Z,101324.44
2022-09-12T14:56:12.616Z,101321.66
2022-09-12T14:58:41.447Z,101325.00
2022-09-12T15:01:33.190Z,101317.91
2022-09-12T15:04:01.130Z,101317.72
2022-09-12T15:06:31.197Z,101324.53
2022-09-12T15:09:01.257Z,101314.47
2022-09-12T15:11:30.495Z,101315.06
2022-09-12T15:13:58.328Z,101316.38
2022-09-12T15:16:26.376Z,101312.59
2022-09-12T15:18:54.251Z,101319.00
2022-09-12T15:21:22.506Z,101315.78
2022-09-12T15:23:51.868Z,101317.66
2022-09-12T15:26:22.509Z,101317.03
2022-09-12T15:28:52.396Z,101322.16
2022-09-12T15:31:25.248Z,101309.97
2022-09-12T15:33:53.500Z,101316.34
2022-09-12T15:36:22.897Z,101321.72
2022-09-12T15:38:51.684Z,101313.22
2022-09-12T15:41:21.800Z,101305.28
2022-09-12T15:43:51.735Z,101312.69
2022-09-12T15:46:20.212Z,101301.59
2022-09-12T15:48:48.190Z,101309.22
2022-09-12T15:51:17.780Z,101310.13
2022-09-12T15:53:46.609Z,101303.00
2022-09-12T15:56:15.739Z,101308.72
2022-09-12T15:58:57.735Z,101303.44
2022-09-12T16:01:29.355Z,101310.91
2022-09-12T16:03:57.421Z,101300.69
2022-09-12T16:06:25.287Z,101289.38
2022-09-12T16:08:53.284Z,101295.06
2022-09-12T16:11:23.104Z,101292.72
2022-09-12T16:13:52.612Z,101290.38
2022-09-12T16:16:20.838Z,101292.69
2022-09-12T16:18:50.224Z,101292.34
2022-09-12T16:21:18.074Z,101282.72
2022-09-12T16:23:46.252Z,101281.75
2022-09-12T16:26:14.369Z,101287.31
2022-09-12T16:28:42.609Z,101277.22
2022-09-12T16:31:13.155Z,101281.31
2022-09-12T16:33:41.783Z,101279.75
2022-09-12T16:36:13.133Z,101274.59
2022-09-12T16:38:45.460Z,101267.78
2022-09-12T16:41:14.163Z,101272.00
2022-09-12T16:43:42.793Z,101265.66
2022-09-12T16:46:13.418Z,101268.38
2022-09-12T16:48:49.326Z,101266.56
2022-09-12T16:51:22.946Z,101262.66
2022-09-12T16:53:51.461Z,101267.56
2022-09-12T16:56:19.765Z,101262.53
2022-09-12T16:58:48.025Z,101260.09
2022-09-12T17:01:18.799Z,101257.38
2022-09-12T17:03:47.094Z,101253.19
2022-09-12T17:06:16.654Z,101245.75
2022-09-12T17:08:47.974Z,101248.69
2022-09-12T17:11:18.516Z,101246.78
2022-09-12T17:14:03.694Z,101249.38
2022-09-12T17:16:34.116Z,101240.19
2022-09-12T17:19:02.028Z,101240.88
2022-09-12T17:21:29.941Z,101239.81
2022-09-12T17:23:59.971Z,101242.22
2022-09-12T17:26:28.301Z,101240.03
2022-09-12T17:28:56.161Z,101238.66
2022-09-12T17:31:24.202Z,101238.84
2022-09-12T17:33:56.407Z,101242.06
2022-09-12T17:36:24.311Z,101235.31
2022-09-12T17:38:54.174Z,101234.47
2022-09-12T17:41:25.367Z,101244.16
2022-09-12T17:43:57.135Z,101243.66
2022-09-12T17:46:27.360Z,101241.66
2022-09-12T17:48:56.682Z,101245.91
2022-09-12T17:51:25.953Z,101246.25
2022-09-12T17:53:59.051Z,101250.84
2022-09-12T17:56:29.553Z,101253.91
2022-09-12T17:58:57.979Z,101263.75
2022-09-12T18:01:44.524Z,101259.38
2022-09-12T18:04:12.409Z,101257.66
2022-09-12T18:06:40.854Z,101251.19
2022-09-12T18:09:10.505Z,101258.69
2022-09-12T18:11:39.802Z,101264.44
2022-09-12T18:14:11.331Z,101259.34
2022-09-12T18:16:41.442Z,101262.09
2022-09-12T18:19:09.338Z,101262.09
2022-09-12T18:21:37.341Z,101248.50
2022-09-12T18:24:05.663Z,101252.91
2022-09-12T18:26:34.502Z,101250.50
2022-09-12T18:29:03.729Z,101251.22
2022-09-12T18:31:32.017Z,101247.63
2022-09-12T18:34:01.073Z,101245.94
2022-09-12T18:38:58.653Z,101254.06
2022-09-12T18:41:28.799Z,101254.59
2022-09-12T18:43:58.110Z,101252.53
2022-09-12T18:46:29.292Z,101247.94
2022-09-12T18:48:58.391Z,101237.78
2022-09-12T18:51:31.333Z,101244.38
2022-09-12T18:54:01.310Z,101250.13
2022-09-12T18:56:32.883Z,101244.72
2022-09-12T18:59:02.729Z,101241.31
2022-09-12T19:01:33.269Z,101233.69
2022-09-12T19:04:04.664Z,101232.47
2022-09-12T19:06:34.208Z,101230.44
2022-09-12T19:09:07.421Z,101225.34
2022-09-12T19:11:37.344Z,101227.03
2022-09-12T19:14:05.841Z,101226.50
2022-09-12T19:16:35.959Z,101220.56
2022-09-12T19:19:04.037Z,101227.84
2022-09-12T19:21:33.068Z,101220.84
2022-09-12T19:24:02.396Z,101222.88
2022-09-12T19:26:30.530Z,101221.47
2022-09-12T19:28:58.568Z,101209.44
2022-09-12T19:31:26.798Z,101220.75
2022-09-12T19:34:01.605Z,101213.31
2022-09-12T19:36:46.698Z,101209.91
2022-09-12T19:39:16.450Z,101208.19
2022-09-12T19:41:44.386Z,101208.50
2022-09-12T19:44:12.641Z,101208.19
2022-09-12T19:46:40.780Z,101212.59
2022-09-12T19:49:11.305Z,101214.28
2022-09-12T19:51:39.244Z,101216.78
2022-09-12T19:54:07.741Z,101211.53
2022-09-12T19:56:35.973Z,101204.63
2022-09-12T19:59:03.869Z,101207.47
2022-09-12T20:01:32.461Z,101203.69
2022-09-12T20:04:00.509Z,101199.81
2022-09-12T20:06:29.898Z,101197.22
2022-09-12T20:08:57.995Z,101195.69
2022-09-12T20:11:26.021Z,101194.34
2022-09-12T20:13:53.999Z,101194.84
2022-09-12T20:16:24.473Z,101189.59
2022-09-12T20:18:57.327Z,101186.31
2022-09-12T20:21:31.243Z,101184.84
2022-09-12T20:24:06.369Z,101192.28
2022-09-12T20:26:34.923Z,101185.00
2022-09-12T20:29:03.279Z,101182.31
2022-09-12T20:31:32.025Z,101183.69
2022-09-12T20:34:00.071Z,101183.16
2022-09-12T20:36:28.004Z,101185.22
2022-09-12T20:38:57.937Z,101172.50
2022-09-12T20:41:28.889Z,101174.06
2022-09-12T20:43:58.182Z,101177.56
2022-09-12T20:46:27.519Z,101178.25
2022-09-12T20:48:55.833Z,101180.56
2022-09-12T20:51:24.574Z,101180.72
2022-09-12T20:53:54.346Z,101177.88
2022-09-12T20:56:22.681Z,101167.69
2022-09-12T20:58:52.135Z,101171.59
2022-09-12T21:01:20.672Z,101168.25
2022-09-12T21:03:49.667Z,101168.69
2022-09-12T21:06:18.816Z,101170.94
2022-09-12T21:08:47.848Z,101160.44
2022-09-12T21:11:16.419Z,101172.56
2022-09-12T21:13:44.740Z,101170.44
2022-09-12T21:16:15.482Z,101164.16
2022-09-12T21:18:43.672Z,101162.00
2022-09-12T21:21:13.086Z,101169.75
2022-09-12T21:23:41.506Z,101170.13
2022-09-12T21:26:09.730Z,101162.56
2022-09-12T21:28:37.673Z,101166.13
2022-09-12T21:31:06.058Z,101156.00
2022-09-12T21:33:35.614Z,101156.88
2022-09-12T21:36:04.701Z,101152.50
2022-09-12T21:38:33.089Z,101159.59
2022-09-12T21:41:06.368Z,101159.50
2022-09-12T21:43:34.259Z,101152.50
2022-09-12T21:46:03.018Z,101155.63
2022-09-12T21:48:31.261Z,101148.25
2022-09-12T21:51:00.890Z,101157.50
2022-09-12T21:53:29.202Z,101148.25
2022-09-12T21:56:01.890Z,101143.28
2022-09-12T21:58:29.751Z,101135.00
2022-09-12T22:00:57.808Z,101140.16
2022-09-12T22:03:26.019Z,101142.50
2022-09-12T22:05:58.049Z,101132.63
2022-09-12T22:08:27.682Z,101132.31
2022-09-12T22:11:00.472Z,101132.56
2022-09-12T22:13:28.536Z,101126.59
2022-09-12T22:15:56.984Z,101126.53
2022-09-12T22:18:24.977Z,101110.69
2022-09-12T22:20:59.943Z,101108.84
2022-09-12T22:23:46.649Z,101108.47
2022-09-12T22:26:15.566Z,101106.50
2022-09-12T22:28:43.933Z,101102.31
2022-09-12T22:31:12.673Z,101098.34
2022-09-12T22:33:41.331Z,101101.19
2022-09-12T22:36:10.193Z,101095.19
2022-09-12T22:38:39.809Z,101090.66
2022-09-12T22:41:09.196Z,101093.44
2022-09-12T22:43:37.421Z,101083.63
2022-09-12T22:46:07.621Z,101080.69
2022-09-12T22:48:35.686Z,101067.41
2022-09-12T22:51:03.533Z,101066.84
2022-09-12T22:53:31.444Z,101065.81
2022-09-12T22:56:00.635Z,101062.47
2022-09-12T22:58:28.486Z,101060.09
2022-09-12T23:00:56.394Z,101051.97
2022-09-12T23:03:24.316Z,101052.97
2022-09-12T23:05:52.405Z,101050.13
2022-09-12T23:08:20.353Z,101048.34
2022-09-12T23:10:48.190Z,101048.59
2022-09-12T23:13:17.763Z,101041.84
2022-09-12T23:15:45.578Z,101050.41
2022-09-12T23:18:13.407Z,101051.66
2022-09-12T23:20:41.243Z,101040.75
2022-09-12T23:23:09.655Z,101038.34
2022-09-12T23:25:37.965Z,101037.09
2022-09-12T23:28:05.780Z,101040.59
2022-09-12T23:30:34.953Z,101047.03
2022-09-12T23:33:02.778Z,101041.56
2022-09-12T23:35:30.614Z,101040.56
2022-09-12T23:37:58.454Z,101034.84
2022-09-12T23:40:26.330Z,101034.53
2022-09-12T23:42:54.583Z,101030.22
2022-09-12T23:45:22.490Z,101027.88
2022-09-12T23:47:51.722Z,101028.59
2022-09-12T23:50:19.560Z,101034.78
2022-09-12T23:52:47.360Z,101025.72
2022-09-12T23:55:15.221Z,101023.19
2022-09-12T23:57:43.701Z,101025.72
